sensor_id;sensor_type;location;lat;lon;timestamp;P1;durP1;ratioP1;P2;durP2;ratioP2
44842;SDS011;31884;52.538;13.820;2022-09-17T00:00:55;4.68;;;1.50;;
44842;SDS011;31884;52.538;13.820;2022-09-17T00:03:22;3.55;;;1.77;;
44842;SDS011;31884;52.538;13.820;2022-09-17T00:05:48;4.40;;;1.48;;
44842;SDS011;31884;52.538;13.820;2022-09-17T00:08:14;5.82;;;1.50;;
44842;SDS011;31884;52.538;13.820;2022-09-17T00:10:40;3.00;;;1.50;;
44842;SDS011;31884;52.538;13.820;2022-09-17T00:13:08;3.50;;;1.48;;
44842;SDS011;31884;52.538;13.820;2022-09-17T00:15:40;4.15;;;1.73;;
44842;SDS011;31884;52.538;13.820;2022-09-17T00:18:07;3.70;;;1.52;;
44842;SDS011;31884;52.538;13.820;2022-09-17T00:20:36;3.92;;;1.50;;
44842;SDS011;31884;52.538;13.820;2022-09-17T00:23:11;4.30;;;1.90;;
44842;SDS011;31884;52.538;13.820;2022-09-17T00:25:38;2.55;;;1.45;;
44842;SDS011;31884;52.538;13.820;2022-09-17T00:28:05;4.38;;;1.50;;
44842;SDS011;31884;52.538;13.820;2022-09-17T00:30:30;2.15;;;1.38;;
44842;SDS011;31884;52.538;13.820;2022-09-17T00:32:56;2.63;;;1.30;;
44842;SDS011;31884;52.538;13.820;2022-09-17T00:35:23;7.07;;;1.98;;
44842;SDS011;31884;52.538;13.820;2022-09-17T00:37:49;1.95;;;1.20;;
44842;SDS011;31884;52.538;13.820;2022-09-17T00:40:15;2.95;;;1.55;;
44842;SDS011;31884;52.538;13.820;2022-09-17T00:42:40;2.70;;;1.60;;
44842;SDS011;31884;52.538;13.820;2022-09-17T00:45:06;2.88;;;1.50;;
44842;SDS011;31884;52.538;13.820;2022-09-17T00:47:34;2.80;;;1.17;;
44842;SDS011;31884;52.538;13.820;2022-09-17T00:50:13;3.72;;;1.33;;
44842;SDS011;31884;52.538;13.820;2022-09-17T00:52:55;4.50;;;1.45;;
44842;SDS011;31884;52.538;13.820;2022-09-17T00:55:32;2.22;;;1.38;;
44842;SDS011;31884;52.538;13.820;2022-09-17T00:58:02;7.55;;;1.30;;
44842;SDS011;31884;52.538;13.820;2022-09-17T01:00:31;4.43;;;1.60;;
44842;SDS011;31884;52.538;13.820;2022-09-17T01:02:57;6.45;;;1.60;;
44842;SDS011;31884;52.538;13.820;2022-09-17T01:24:09;5.15;;;1.67;;
44842;SDS011;31884;52.538;13.820;2022-09-17T01:26:51;3.75;;;1.58;;
44842;SDS011;31884;52.538;13.820;2022-09-17T01:29:54;3.70;;;1.35;;
44842;SDS011;31884;52.538;13.820;2022-09-17T01:43:23;5.15;;;1.90;;
44842;SDS011;31884;52.538;13.820;2022-09-17T01:46:03;9.00;;;2.08;;
44842;SDS011;31884;52.538;13.820;2022-09-17T01:48:38;7.78;;;1.70;;
44842;SDS011;31884;52.538;13.820;2022-09-17T01:51:10;7.32;;;1.77;;
44842;SDS011;31884;52.538;13.820;2022-09-17T01:53:50;5.85;;;1.58;;
44842;SDS011;31884;52.538;13.820;2022-09-17T01:56:32;6.78;;;2.00;;
44842;SDS011;31884;52.538;13.820;2022-09-17T01:59:12;6.13;;;2.10;;
44842;SDS011;31884;52.538;13.820;2022-09-17T02:01:49;4.57;;;1.85;;
44842;SDS011;31884;52.538;13.820;2022-09-17T02:04:22;8.40;;;1.98;;
44842;SDS011;31884;52.538;13.820;2022-09-17T02:06:50;6.47;;;1.80;;
44842;SDS011;31884;52.538;13.820;2022-09-17T02:09:26;4.88;;;1.52;;
44842;SDS011;31884;52.538;13.820;2022-09-17T02:11:58;6.90;;;2.05;;
44842;SDS011;31884;52.538;13.820;2022-09-17T02:14:30;6.22;;;1.60;;
44842;SDS011;31884;52.538;13.820;2022-09-17T02:17:13;5.78;;;2.05;;
44842;SDS011;31884;52.538;13.820;2022-09-17T02:19:49;6.22;;;1.60;;
44842;SDS011;31884;52.538;13.820;2022-09-17T02:24:59;3.60;;;1.85;;
44842;SDS011;31884;52.538;13.820;2022-09-17T02:27:31;5.65;;;2.42;;
44842;SDS011;31884;52.538;13.820;2022-09-17T02:30:03;3.60;;;1.77;;
44842;SDS011;31884;52.538;13.820;2022-09-17T02:32:30;3.85;;;1.73;;
44842;SDS011;31884;52.538;13.820;2022-09-17T02:34:55;5.15;;;1.95;;
44842;SDS011;31884;52.538;13.820;2022-09-17T02:37:20;6.55;;;1.92;;
44842;SDS011;31884;52.538;13.820;2022-09-17T02:39:46;5.60;;;1.77;;
44842;SDS011;31884;52.538;13.820;2022-09-17T02:50:07;10.40;;;2.20;;
44842;SDS011;31884;52.538;13.820;2022-09-17T02:55:17;3.03;;;1.80;;
44842;SDS011;31884;52.538;13.820;2022-09-17T03:00:23;3.47;;;1.80;;
44842;SDS011;31884;52.538;13.820;2022-09-17T03:02:56;3.97;;;1.40;;
44842;SDS011;31884;52.538;13.820;2022-09-17T03:05:28;4.43;;;1.60;;
44842;SDS011;31884;52.538;13.820;2022-09-17T03:07:55;5.10;;;1.70;;
44842;SDS011;31884;52.538;13.820;2022-09-17T03:10:21;4.43;;;1.88;;
44842;SDS011;31884;52.538;13.820;2022-09-17T03:12:47;4.57;;;1.90;;
44842;SDS011;31884;52.538;13.820;2022-09-17T03:15:13;4.78;;;1.42;;
44842;SDS011;31884;52.538;13.820;2022-09-17T03:17:38;5.00;;;1.90;;
44842;SDS011;31884;52.538;13.820;2022-09-17T03:20:04;7.90;;;1.73;;
44842;SDS011;31884;52.538;13.820;2022-09-17T03:22:30;2.83;;;1.63;;
44842;SDS011;31884;52.538;13.820;2022-09-17T03:24:55;3.20;;;1.83;;
44842;SDS011;31884;52.538;13.820;2022-09-17T03:27:21;6.00;;;3.17;;
44842;SDS011;31884;52.538;13.820;2022-09-17T03:29:47;7.25;;;2.95;;
44842;SDS011;31884;52.538;13.820;2022-09-17T03:32:12;6.45;;;2.47;;
44842;SDS011;31884;52.538;13.820;2022-09-17T03:34:38;7.88;;;2.60;;
44842;SDS011;31884;52.538;13.820;2022-09-17T03:37:03;4.78;;;2.90;;
44842;SDS011;31884;52.538;13.820;2022-09-17T03:39:29;3.47;;;2.30;;
44842;SDS011;31884;52.538;13.820;2022-09-17T03:41:54;4.65;;;2.10;;
44842;SDS011;31884;52.538;13.820;2022-09-17T03:44:20;5.05;;;2.13;;
44842;SDS011;31884;52.538;13.820;2022-09-17T03:46:47;4.70;;;1.50;;
44842;SDS011;31884;52.538;13.820;2022-09-17T03:49:13;6.07;;;2.20;;
44842;SDS011;31884;52.538;13.820;2022-09-17T03:51:39;5.32;;;1.90;;
44842;SDS011;31884;52.538;13.820;2022-09-17T03:54:04;5.95;;;2.25;;
44842;SDS011;31884;52.538;13.820;2022-09-17T03:56:30;5.97;;;2.55;;
44842;SDS011;31884;52.538;13.820;2022-09-17T03:58:59;4.03;;;2.60;;
44842;SDS011;31884;52.538;13.820;2022-09-17T04:01:25;5.03;;;2.50;;
44842;SDS011;31884;52.538;13.820;2022-09-17T04:03:51;5.03;;;3.00;;
44842;SDS011;31884;52.538;13.820;2022-09-17T04:06:17;8.35;;;2.97;;
44842;SDS011;31884;52.538;13.820;2022-09-17T04:08:43;5.93;;;2.78;;
44842;SDS011;31884;52.538;13.820;2022-09-17T04:11:08;5.22;;;2.70;;
44842;SDS011;31884;52.538;13.820;2022-09-17T04:13:34;4.72;;;2.33;;
44842;SDS011;31884;52.538;13.820;2022-09-17T04:16:00;6.20;;;3.13;;
44842;SDS011;31884;52.538;13.820;2022-09-17T04:18:26;4.43;;;2.38;;
44842;SDS011;31884;52.538;13.820;2022-09-17T04:20:51;5.30;;;2.80;;
44842;SDS011;31884;52.538;13.820;2022-09-17T04:23:17;6.10;;;2.40;;
44842;SDS011;31884;52.538;13.820;2022-09-17T04:25:43;4.63;;;2.47;;
44842;SDS011;31884;52.538;13.820;2022-09-17T04:28:08;7.57;;;2.42;;
44842;SDS011;31884;52.538;13.820;2022-09-17T04:30:34;4.93;;;2.55;;
44842;SDS011;31884;52.538;13.820;2022-09-17T04:33:00;6.82;;;2.72;;
44842;SDS011;31884;52.538;13.820;2022-09-17T04:35:25;5.47;;;2.20;;
44842;SDS011;31884;52.538;13.820;2022-09-17T04:37:52;8.35;;;2.60;;
44842;SDS011;31884;52.538;13.820;2022-09-17T04:40:18;9.35;;;2.88;;
44842;SDS011;31884;52.538;13.820;2022-09-17T04:42:44;7.70;;;2.25;;
44842;SDS011;31884;52.538;13.820;2022-09-17T04:45:09;3.28;;;1.98;;
44842;SDS011;31884;52.538;13.820;2022-09-17T04:47:37;4.70;;;2.00;;
44842;SDS011;31884;52.538;13.820;2022-09-17T04:50:03;2.95;;;1.92;;
44842;SDS011;31884;52.538;13.820;2022-09-17T04:52:29;2.33;;;1.60;;
44842;SDS011;31884;52.538;13.820;2022-09-17T04:54:55;5.22;;;2.15;;
44842;SDS011;31884;52.538;13.820;2022-09-17T04:57:20;3.30;;;1.90;;
44842;SDS011;31884;52.538;13.820;2022-09-17T04:59:47;2.40;;;1.60;;
44842;SDS011;31884;52.538;13.820;2022-09-17T05:02:12;4.88;;;1.65;;
44842;SDS011;31884;52.538;13.820;2022-09-17T05:04:38;3.25;;;1.70;;
44842;SDS011;31884;52.538;13.820;2022-09-17T05:07:03;9.20;;;2.10;;
44842;SDS011;31884;52.538;13.820;2022-09-17T05:09:29;3.97;;;1.50;;
44842;SDS011;31884;52.538;13.820;2022-09-17T05:11:55;5.20;;;1.60;;
44842;SDS011;31884;52.538;13.820;2022-09-17T05:14:20;2.65;;;1.25;;
44842;SDS011;31884;52.538;13.820;2022-09-17T05:16:46;4.07;;;1.35;;
44842;SDS011;31884;52.538;13.820;2022-09-17T05:19:11;5.70;;;1.75;;
44842;SDS011;31884;52.538;13.820;2022-09-17T05:21:37;8.20;;;1.42;;
44842;SDS011;31884;52.538;13.820;2022-09-17T05:24:02;2.97;;;1.40;;
44842;SDS011;31884;52.538;13.820;2022-09-17T05:26:28;5.97;;;1.70;;
44842;SDS011;31884;52.538;13.820;2022-09-17T05:28:53;6.93;;;1.60;;
44842;SDS011;31884;52.538;13.820;2022-09-17T05:31:19;5.32;;;1.50;;
44842;SDS011;31884;52.538;13.820;2022-09-17T05:33:44;5.43;;;1.65;;
44842;SDS011;31884;52.538;13.820;2022-09-17T05:36:10;4.47;;;1.77;;
44842;SDS011;31884;52.538;13.820;2022-09-17T05:38:35;9.45;;;2.05;;
44842;SDS011;31884;52.538;13.820;2022-09-17T05:41:04;7.85;;;2.00;;
44842;SDS011;31884;52.538;13.820;2022-09-17T05:43:31;9.63;;;1.95;;
44842;SDS011;31884;52.538;13.820;2022-09-17T05:46:00;4.78;;;1.67;;
44842;SDS011;31884;52.538;13.820;2022-09-17T05:48:29;6.75;;;1.75;;
44842;SDS011;31884;52.538;13.820;2022-09-17T05:50:55;7.40;;;2.40;;
44842;SDS011;31884;52.538;13.820;2022-09-17T05:53:21;5.57;;;1.88;;
44842;SDS011;31884;52.538;13.820;2022-09-17T05:55:46;5.18;;;1.58;;
44842;SDS011;31884;52.538;13.820;2022-09-17T05:58:13;8.82;;;2.13;;
44842;SDS011;31884;52.538;13.820;2022-09-17T06:00:40;6.88;;;2.05;;
44842;SDS011;31884;52.538;13.820;2022-09-17T06:03:07;3.85;;;1.60;;
44842;SDS011;31884;52.538;13.820;2022-09-17T06:05:35;7.85;;;2.15;;
44842;SDS011;31884;52.538;13.820;2022-09-17T06:08:00;7.70;;;1.83;;
44842;SDS011;31884;52.538;13.820;2022-09-17T06:10:26;5.97;;;1.70;;
44842;SDS011;31884;52.538;13.820;2022-09-17T06:12:55;8.27;;;1.73;;
44842;SDS011;31884;52.538;13.820;2022-09-17T06:15:21;8.23;;;2.40;;
44842;SDS011;31884;52.538;13.820;2022-09-17T06:17:47;7.00;;;2.00;;
44842;SDS011;31884;52.538;13.820;2022-09-17T06:20:12;6.93;;;1.80;;
44842;SDS011;31884;52.538;13.820;2022-09-17T06:22:40;10.13;;;2.35;;
44842;SDS011;31884;52.538;13.820;2022-09-17T06:25:06;9.93;;;1.92;;
44842;SDS011;31884;52.538;13.820;2022-09-17T06:27:32;7.07;;;1.90;;
44842;SDS011;31884;52.538;13.820;2022-09-17T06:29:58;8.98;;;1.80;;
44842;SDS011;31884;52.538;13.820;2022-09-17T06:32:24;7.75;;;1.70;;
44842;SDS011;31884;52.538;13.820;2022-09-17T06:34:50;5.35;;;2.03;;
44842;SDS011;31884;52.538;13.820;2022-09-17T06:37:16;6.18;;;2.22;;
44842;SDS011;31884;52.538;13.820;2022-09-17T06:39:41;7.57;;;2.38;;
44842;SDS011;31884;52.538;13.820;2022-09-17T06:42:07;5.60;;;2.00;;
44842;SDS011;31884;52.538;13.820;2022-09-17T06:44:32;7.05;;;2.00;;
44842;SDS011;31884;52.538;13.820;2022-09-17T06:46:58;7.95;;;2.30;;
44842;SDS011;31884;52.538;13.820;2022-09-17T06:49:23;5.88;;;1.80;;
44842;SDS011;31884;52.538;13.820;2022-09-17T06:51:49;7.55;;;1.73;;
44842;SDS011;31884;52.538;13.820;2022-09-17T06:54:14;7.85;;;2.20;;
44842;SDS011;31884;52.538;13.820;2022-09-17T06:56:40;8.77;;;2.10;;
44842;SDS011;31884;52.538;13.820;2022-09-17T06:59:05;8.05;;;2.17;;
44842;SDS011;31884;52.538;13.820;2022-09-17T07:01:31;9.75;;;2.17;;
44842;SDS011;31884;52.538;13.820;2022-09-17T07:03:56;7.65;;;2.00;;
44842;SDS011;31884;52.538;13.820;2022-09-17T07:06:22;13.38;;;2.75;;
44842;SDS011;31884;52.538;13.820;2022-09-17T07:08:48;6.35;;;2.20;;
44842;SDS011;31884;52.538;13.820;2022-09-17T07:11:13;5.40;;;2.05;;
44842;SDS011;31884;52.538;13.820;2022-09-17T07:13:40;11.65;;;2.67;;
44842;SDS011;31884;52.538;13.820;2022-09-17T07:16:06;4.85;;;1.80;;
44842;SDS011;31884;52.538;13.820;2022-09-17T07:18:31;8.52;;;2.05;;
44842;SDS011;31884;52.538;13.820;2022-09-17T07:21:00;7.00;;;2.17;;
44842;SDS011;31884;52.538;13.820;2022-09-17T07:23:29;11.63;;;2.75;;
44842;SDS011;31884;52.538;13.820;2022-09-17T07:25:57;7.05;;;2.60;;
44842;SDS011;31884;52.538;13.820;2022-09-17T07:28:24;8.88;;;2.10;;
44842;SDS011;31884;52.538;13.820;2022-09-17T07:30:51;13.50;;;2.28;;
44842;SDS011;31884;52.538;13.820;2022-09-17T07:33:17;5.63;;;1.88;;
44842;SDS011;31884;52.538;13.820;2022-09-17T07:36:00;9.15;;;2.20;;
44842;SDS011;31884;52.538;13.820;2022-09-17T07:38:27;8.88;;;2.17;;
44842;SDS011;31884;52.538;13.820;2022-09-17T07:40:55;8.35;;;2.15;;
44842;SDS011;31884;52.538;13.820;2022-09-17T07:43:26;5.32;;;2.10;;
44842;SDS011;31884;52.538;13.820;2022-09-17T07:45:53;7.22;;;2.25;;
44842;SDS011;31884;52.538;13.820;2022-09-17T07:48:20;10.88;;;2.28;;
44842;SDS011;31884;52.538;13.820;2022-09-17T07:50:46;10.38;;;2.78;;
44842;SDS011;31884;52.538;13.820;2022-09-17T07:53:12;7.60;;;2.15;;
44842;SDS011;31884;52.538;13.820;2022-09-17T07:55:37;8.15;;;2.40;;
44842;SDS011;31884;52.538;13.820;2022-09-17T07:58:03;9.05;;;2.15;;
44842;SDS011;31884;52.538;13.820;2022-09-17T08:00:29;6.82;;;2.35;;
44842;SDS011;31884;52.538;13.820;2022-09-17T08:02:55;8.75;;;2.78;;
44842;SDS011;31884;52.538;13.820;2022-09-17T08:05:21;8.85;;;2.60;;
44842;SDS011;31884;52.538;13.820;2022-09-17T08:07:51;8.93;;;2.45;;
44842;SDS011;31884;52.538;13.820;2022-09-17T08:10:18;9.68;;;2.08;;
44842;SDS011;31884;52.538;13.820;2022-09-17T08:12:46;7.22;;;2.00;;
44842;SDS011;31884;52.538;13.820;2022-09-17T08:15:13;8.25;;;2.45;;
44842;SDS011;31884;52.538;13.820;2022-09-17T08:17:42;8.35;;;2.60;;
44842;SDS011;31884;52.538;13.820;2022-09-17T08:20:11;9.32;;;2.50;;
44842;SDS011;31884;52.538;13.820;2022-09-17T08:22:38;8.27;;;2.25;;
44842;SDS011;31884;52.538;13.820;2022-09-17T08:25:04;9.27;;;2.40;;
44842;SDS011;31884;52.538;13.820;2022-09-17T08:27:30;8.27;;;2.70;;
44842;SDS011;31884;52.538;13.820;2022-09-17T08:29:56;6.78;;;2.20;;
44842;SDS011;31884;52.538;13.820;2022-09-17T08:32:22;7.80;;;2.17;;
44842;SDS011;31884;52.538;13.820;2022-09-17T08:34:48;9.05;;;2.33;;
44842;SDS011;31884;52.538;13.820;2022-09-17T08:37:14;6.57;;;1.70;;
44842;SDS011;31884;52.538;13.820;2022-09-17T08:39:39;8.40;;;2.33;;
44842;SDS011;31884;52.538;13.820;2022-09-17T08:45:13;10.23;;;2.63;;
44842;SDS011;31884;52.538;13.820;2022-09-17T08:47:42;9.80;;;2.85;;
44842;SDS011;31884;52.538;13.820;2022-09-17T08:50:14;13.52;;;4.57;;
44842;SDS011;31884;52.538;13.820;2022-09-17T08:53:34;12.63;;;4.53;;
44842;SDS011;31884;52.538;13.820;2022-09-17T08:55:53;11.75;;;5.10;;
44842;SDS011;31884;52.538;13.820;2022-09-17T08:59:26;9.15;;;3.03;;
44842;SDS011;31884;52.538;13.820;2022-09-17T09:01:57;12.43;;;3.15;;
44842;SDS011;31884;52.538;13.820;2022-09-17T09:04:31;4.20;;;2.22;;
44842;SDS011;31884;52.538;13.820;2022-09-17T09:07:17;7.85;;;1.90;;
44842;SDS011;31884;52.538;13.820;2022-09-17T09:12:33;6.35;;;2.03;;
44842;SDS011;31884;52.538;13.820;2022-09-17T09:15:44;6.93;;;1.80;;
44842;SDS011;31884;52.538;13.820;2022-09-17T09:18:15;6.85;;;1.63;;
44842;SDS011;31884;52.538;13.820;2022-09-17T09:20:49;4.30;;;1.50;;
44842;SDS011;31884;52.538;13.820;2022-09-17T09:23:31;4.38;;;1.70;;
44842;SDS011;31884;52.538;13.820;2022-09-17T09:26:19;6.18;;;1.45;;
44842;SDS011;31884;52.538;13.820;2022-09-17T09:31:33;4.57;;;1.77;;
44842;SDS011;31884;52.538;13.820;2022-09-17T09:34:08;6.72;;;2.00;;
44842;SDS011;31884;52.538;13.820;2022-09-17T09:36:36;6.47;;;1.60;;
44842;SDS011;31884;52.538;13.820;2022-09-17T09:39:04;6.00;;;1.63;;
44842;SDS011;31884;52.538;13.820;2022-09-17T09:41:48;3.78;;;1.40;;
44842;SDS011;31884;52.538;13.820;2022-09-17T09:44:25;7.07;;;1.67;;
44842;SDS011;31884;52.538;13.820;2022-09-17T09:55:29;8.18;;;1.90;;
44842;SDS011;31884;52.538;13.820;2022-09-17T09:58:03;5.68;;;1.70;;
44842;SDS011;31884;52.538;13.820;2022-09-17T10:00:43;3.83;;;1.80;;
44842;SDS011;31884;52.538;13.820;2022-09-17T10:03:14;4.53;;;1.85;;
44842;SDS011;31884;52.538;13.820;2022-09-17T10:08:30;9.70;;;1.80;;
44842;SDS011;31884;52.538;13.820;2022-09-17T10:11:01;5.13;;;1.77;;
44842;SDS011;31884;52.538;13.820;2022-09-17T10:13:37;7.80;;;1.63;;
44842;SDS011;31884;52.538;13.820;2022-09-17T10:16:21;5.93;;;1.88;;
44842;SDS011;31884;52.538;13.820;2022-09-17T10:18:49;6.47;;;1.60;;
44842;SDS011;31884;52.538;13.820;2022-09-17T10:24:02;4.97;;;1.50;;
44842;SDS011;31884;52.538;13.820;2022-09-17T10:26:32;5.43;;;1.40;;
44842;SDS011;31884;52.538;13.820;2022-09-17T10:29:13;9.52;;;2.20;;
44842;SDS011;31884;52.538;13.820;2022-09-17T10:31:49;7.72;;;2.17;;
44842;SDS011;31884;52.538;13.820;2022-09-17T10:34:20;6.32;;;1.52;;
44842;SDS011;31884;52.538;13.820;2022-09-17T10:36:54;4.70;;;1.42;;
44842;SDS011;31884;52.538;13.820;2022-09-17T10:39:34;7.93;;;2.05;;
44842;SDS011;31884;52.538;13.820;2022-09-17T10:42:15;5.03;;;1.55;;
44842;SDS011;31884;52.538;13.820;2022-09-17T10:44:55;7.82;;;1.63;;
44842;SDS011;31884;52.538;13.820;2022-09-17T10:52:30;5.63;;;1.67;;
44842;SDS011;31884;52.538;13.820;2022-09-17T10:55:10;5.55;;;1.30;;
44842;SDS011;31884;52.538;13.820;2022-09-17T11:06:18;4.68;;;1.70;;
44842;SDS011;31884;52.538;13.820;2022-09-17T11:22:44;4.75;;;1.70;;
44842;SDS011;31884;52.538;13.820;2022-09-17T11:25:30;5.75;;;1.45;;
44842;SDS011;31884;52.538;13.820;2022-09-17T11:28:00;8.20;;;1.98;;
44842;SDS011;31884;52.538;13.820;2022-09-17T11:33:34;6.53;;;2.00;;
44842;SDS011;31884;52.538;13.820;2022-09-17T11:36:49;6.55;;;1.45;;
44842;SDS011;31884;52.538;13.820;2022-09-17T11:39:18;4.68;;;1.50;;
44842;SDS011;31884;52.538;13.820;2022-09-17T11:42:06;4.10;;;1.33;;
44842;SDS011;31884;52.538;13.820;2022-09-17T11:44:39;6.55;;;1.48;;
44842;SDS011;31884;52.538;13.820;2022-09-17T11:47:29;8.73;;;2.15;;
44842;SDS011;31884;52.538;13.820;2022-09-17T11:50:13;5.07;;;1.40;;
44842;SDS011;31884;52.538;13.820;2022-09-17T11:52:46;9.95;;;2.03;;
44842;SDS011;31884;52.538;13.820;2022-09-17T11:58:09;6.47;;;1.63;;
44842;SDS011;31884;52.538;13.820;2022-09-17T12:00:52;5.93;;;1.90;;
44842;SDS011;31884;52.538;13.820;2022-09-17T12:03:28;5.78;;;1.52;;
44842;SDS011;31884;52.538;13.820;2022-09-17T12:06:12;5.30;;;1.30;;
44842;SDS011;31884;52.538;13.820;2022-09-17T12:08:45;4.35;;;1.40;;
44842;SDS011;31884;52.538;13.820;2022-09-17T12:14:00;4.07;;;1.40;;
44842;SDS011;31884;52.538;13.820;2022-09-17T12:16:32;3.45;;;1.48;;
44842;SDS011;31884;52.538;13.820;2022-09-17T12:21:51;4.20;;;0.88;;
44842;SDS011;31884;52.538;13.820;2022-09-17T12:24:24;3.55;;;1.13;;
44842;SDS011;31884;52.538;13.820;2022-09-17T12:27:03;2.72;;;0.90;;
44842;SDS011;31884;52.538;13.820;2022-09-17T12:29:48;5.05;;;1.00;;
44842;SDS011;31884;52.538;13.820;2022-09-17T12:32:46;6.00;;;1.10;;
44842;SDS011;31884;52.538;13.820;2022-09-17T12:38:23;3.28;;;0.73;;
44842;SDS011;31884;52.538;13.820;2022-09-17T12:43:58;3.90;;;0.85;;
44842;SDS011;31884;52.538;13.820;2022-09-17T12:55:12;3.58;;;1.27;;
44842;SDS011;31884;52.538;13.820;2022-09-17T13:00:20;3.15;;;0.90;;
44842;SDS011;31884;52.538;13.820;2022-09-17T13:02:51;2.78;;;1.08;;
44842;SDS011;31884;52.538;13.820;2022-09-17T13:05:36;6.07;;;1.10;;
44842;SDS011;31884;52.538;13.820;2022-09-17T13:16:59;3.60;;;0.80;;
44842;SDS011;31884;52.538;13.820;2022-09-17T13:19:40;3.03;;;1.08;;
44842;SDS011;31884;52.538;13.820;2022-09-17T13:22:21;2.05;;;0.80;;
44842;SDS011;31884;52.538;13.820;2022-09-17T13:25:16;2.10;;;0.60;;
44842;SDS011;31884;52.538;13.820;2022-09-17T13:27:44;2.58;;;0.77;;
44842;SDS011;31884;52.538;13.820;2022-09-17T13:30:12;1.20;;;0.60;;
44842;SDS011;31884;52.538;13.820;2022-09-17T13:37:30;2.47;;;0.52;;
44842;SDS011;31884;52.538;13.820;2022-09-17T13:40:01;1.75;;;0.80;;
44842;SDS011;31884;52.538;13.820;2022-09-17T13:42:29;4.22;;;1.00;;
44842;SDS011;31884;52.538;13.820;2022-09-17T13:45:07;2.55;;;0.85;;
44842;SDS011;31884;52.538;13.820;2022-09-17T13:47:39;2.55;;;0.98;;
44842;SDS011;31884;52.538;13.820;2022-09-17T13:50:27;2.58;;;0.80;;
44842;SDS011;31884;52.538;13.820;2022-09-17T13:52:57;2.08;;;0.60;;
44842;SDS011;31884;52.538;13.820;2022-09-17T13:55:34;2.13;;;0.70;;
44842;SDS011;31884;52.538;13.820;2022-09-17T13:58:01;1.83;;;0.68;;
44842;SDS011;31884;52.538;13.820;2022-09-17T14:00:56;3.83;;;1.00;;
44842;SDS011;31884;52.538;13.820;2022-09-17T14:13:53;2.92;;;1.08;;
44842;SDS011;31884;52.538;13.820;2022-09-17T14:30:11;1.85;;;0.70;;
44842;SDS011;31884;52.538;13.820;2022-09-17T14:32:57;2.72;;;0.90;;
44842;SDS011;31884;52.538;13.820;2022-09-17T14:40:50;2.92;;;1.02;;
44842;SDS011;31884;52.538;13.820;2022-09-17T14:46:18;3.67;;;0.82;;
44842;SDS011;31884;52.538;13.820;2022-09-17T14:51:54;5.25;;;1.08;;
44842;SDS011;31884;52.538;13.820;2022-09-17T14:54:25;2.13;;;1.10;;
44842;SDS011;31884;52.538;13.820;2022-09-17T14:56:55;5.50;;;1.48;;
44842;SDS011;31884;52.538;13.820;2022-09-17T14:59:41;3.58;;;1.15;;
44842;SDS011;31884;52.538;13.820;2022-09-17T15:05:16;2.63;;;0.93;;
44842;SDS011;31884;52.538;13.820;2022-09-17T15:10:46;5.50;;;1.20;;
44842;SDS011;31884;52.538;13.820;2022-09-17T15:13:22;4.65;;;1.00;;
44842;SDS011;31884;52.538;13.820;2022-09-17T15:18:40;4.35;;;1.10;;
44842;SDS011;31884;52.538;13.820;2022-09-17T15:21:16;4.07;;;0.90;;
44842;SDS011;31884;52.538;13.820;2022-09-17T15:27:09;4.40;;;1.00;;
44842;SDS011;31884;52.538;13.820;2022-09-17T15:29:39;3.50;;;0.98;;
44842;SDS011;31884;52.538;13.820;2022-09-17T15:32:10;1.63;;;0.90;;
44842;SDS011;31884;52.538;13.820;2022-09-17T15:34:36;2.53;;;1.05;;
44842;SDS011;31884;52.538;13.820;2022-09-17T15:37:06;3.35;;;1.52;;
44842;SDS011;31884;52.538;13.820;2022-09-17T15:39:48;5.13;;;1.52;;
44842;SDS011;31884;52.538;13.820;2022-09-17T15:42:16;6.28;;;2.10;;
44842;SDS011;31884;52.538;13.820;2022-09-17T15:44:47;7.88;;;3.20;;
44842;SDS011;31884;52.538;13.820;2022-09-17T15:50:17;3.88;;;1.55;;
44842;SDS011;31884;52.538;13.820;2022-09-17T15:52:45;4.85;;;2.10;;
44842;SDS011;31884;52.538;13.820;2022-09-17T15:55:30;3.20;;;1.30;;
44842;SDS011;31884;52.538;13.820;2022-09-17T15:58:18;3.20;;;1.10;;
44842;SDS011;31884;52.538;13.820;2022-09-17T16:08:53;1.38;;;0.40;;
44842;SDS011;31884;52.538;13.820;2022-09-17T16:11:20;0.90;;;0.50;;
44842;SDS011;31884;52.538;13.820;2022-09-17T16:13:48;1.20;;;0.30;;
44842;SDS011;31884;52.538;13.820;2022-09-17T16:16:15;1.02;;;0.40;;
44842;SDS011;31884;52.538;13.820;2022-09-17T16:18:43;2.13;;;0.40;;
44842;SDS011;31884;52.538;13.820;2022-09-17T16:21:12;0.80;;;0.35;;
44842;SDS011;31884;52.538;13.820;2022-09-17T16:23:38;1.33;;;0.30;;
44842;SDS011;31884;52.538;13.820;2022-09-17T16:26:04;2.53;;;0.40;;
44842;SDS011;31884;52.538;13.820;2022-09-17T16:28:31;0.98;;;0.65;;
44842;SDS011;31884;52.538;13.820;2022-09-17T16:30:58;1.45;;;1.00;;
44842;SDS011;31884;52.538;13.820;2022-09-17T16:33:23;1.25;;;0.73;;
44842;SDS011;31884;52.538;13.820;2022-09-17T16:35:55;2.42;;;0.77;;
44842;SDS011;31884;52.538;13.820;2022-09-17T16:38:20;1.55;;;0.70;;
44842;SDS011;31884;52.538;13.820;2022-09-17T16:40:46;1.67;;;0.40;;
44842;SDS011;31884;52.538;13.820;2022-09-17T16:43:12;1.27;;;0.70;;
44842;SDS011;31884;52.538;13.820;2022-09-17T16:45:37;2.83;;;0.60;;
44842;SDS011;31884;52.538;13.820;2022-09-17T16:48:03;0.95;;;0.73;;
44842;SDS011;31884;52.538;13.820;2022-09-17T16:50:30;3.42;;;1.10;;
44842;SDS011;31884;52.538;13.820;2022-09-17T16:52:55;2.42;;;0.57;;
44842;SDS011;31884;52.538;13.820;2022-09-17T16:55:21;2.22;;;1.02;;
44842;SDS011;31884;52.538;13.820;2022-09-17T16:57:46;1.65;;;1.00;;
44842;SDS011;31884;52.538;13.820;2022-09-17T17:00:14;2.05;;;0.63;;
44842;SDS011;31884;52.538;13.820;2022-09-17T17:02:43;1.50;;;0.63;;
44842;SDS011;31884;52.538;13.820;2022-09-17T17:05:14;0.88;;;0.60;;
44842;SDS011;31884;52.538;13.820;2022-09-17T17:07:40;2.30;;;0.93;;
44842;SDS011;31884;52.538;13.820;2022-09-17T17:10:06;2.63;;;0.50;;
44842;SDS011;31884;52.538;13.820;2022-09-17T17:12:33;3.25;;;1.10;;
44842;SDS011;31884;52.538;13.820;2022-09-17T17:14:59;1.85;;;0.90;;
44842;SDS011;31884;52.538;13.820;2022-09-17T17:17:26;2.03;;;0.63;;
44842;SDS011;31884;52.538;13.820;2022-09-17T17:19:52;1.77;;;0.80;;
44842;SDS011;31884;52.538;13.820;2022-09-17T17:22:17;1.50;;;0.70;;
44842;SDS011;31884;52.538;13.820;2022-09-17T17:24:43;1.15;;;0.70;;
44842;SDS011;31884;52.538;13.820;2022-09-17T17:27:08;1.38;;;0.70;;
44842;SDS011;31884;52.538;13.820;2022-09-17T17:29:34;3.05;;;0.80;;
44842;SDS011;31884;52.538;13.820;2022-09-17T17:32:00;2.17;;;0.65;;
44842;SDS011;31884;52.538;13.820;2022-09-17T17:34:27;2.63;;;0.73;;
44842;SDS011;31884;52.538;13.820;2022-09-17T17:36:53;1.38;;;0.85;;
44842;SDS011;31884;52.538;13.820;2022-09-17T17:39:19;3.05;;;0.73;;
44842;SDS011;31884;52.538;13.820;2022-09-17T17:41:44;1.92;;;0.60;;
44842;SDS011;31884;52.538;13.820;2022-09-17T17:44:09;2.20;;;0.68;;
44842;SDS011;31884;52.538;13.820;2022-09-17T17:46:36;1.98;;;0.82;;
44842;SDS011;31884;52.538;13.820;2022-09-17T17:49:06;1.98;;;0.80;;
44842;SDS011;31884;52.538;13.820;2022-09-17T17:51:32;1.73;;;0.80;;
44842;SDS011;31884;52.538;13.820;2022-09-17T17:53:58;0.98;;;0.60;;
44842;SDS011;31884;52.538;13.820;2022-09-17T17:56:24;1.40;;;0.70;;
44842;SDS011;31884;52.538;13.820;2022-09-17T17:58:53;2.25;;;0.82;;
44842;SDS011;31884;52.538;13.820;2022-09-17T18:01:27;1.77;;;1.00;;
44842;SDS011;31884;52.538;13.820;2022-09-17T18:03:56;3.67;;;0.90;;
44842;SDS011;31884;52.538;13.820;2022-09-17T18:06:22;2.85;;;0.60;;
44842;SDS011;31884;52.538;13.820;2022-09-17T18:08:48;1.02;;;0.80;;